Terminal Aerodrome Forecast
Issued by NWS

Home | Current Version | Previous Version | Text Only | Print | Product List | Glossary On
Versions: 1 2 3 4 5 6 7 8 9 10 11 12 13 14 15 16 17 18 19 20 21 22 23 24 25 26
000
FTUS45 KGJT 280537
TAFASE
TAF
KASE 280537Z 2806/0106 36004KT 1SM -SN BR VV006
      TEMPO 2806/2810 1/2SM SN FZFG VV002
     FM281000 VRB05KT 1SM -SHSN BR OVC015
     FM281700 32007KT 3SM -SHSN BR OVC025
     FM282300 31008KT P6SM VCSH OVC025=

USA.gov is the U.S. government's official web portal to all federal, state and local government web resources and services.